Jacky L O'neal — WDG3892 — position and weather

sailwx.info

Track history (hours):
 
Tides and Currents Weather Stations Pressure Air Temp Water Temp Dewpoint Dewpoint Depression Visibility Wind Speed Wind Dir Waves Ship Positions

Jacky L O'neal

Owner: American Commercial Lines LLC, Jeffersonville, IN. More information available from US FCC via Universal Licensing System and Coast Guard Vessel Documentation Center.

Last reported at 2016-Dec-05 22:27 UTC. Time now 2016-Dec-09 00:07 UTC.
Position N 32°40' W 091°07'.

Length 55 m; draft 2.9 m.

Type: Tow > 200 m length. MMSI: 367530760.

Date/timePositionNaut miles runAvg speedWind from/ knotsBaromVisibWave heightAir tempDewpointWater temp
2016-Dec-05 22:27N 32°40' W 091°07'4 4.0
2016-Dec-05 21:33N 32°37' W 091°09'2 2.4
2016-Dec-05 20:33N 32°35' W 091°08'2 2.3
2016-Dec-05 19:33N 32°34' W 091°06'5 5.1
2016-Dec-05 18:33N 32°29' W 091°07'4 4.3
2016-Dec-05 17:33N 32°26' W 091°02'4 4.0
2016-Dec-05 16:33N 32°23' W 091°00'4 3.8
2016-Dec-05 15:33N 32°21' W 090°56'3 3.1
2016-Dec-05 14:33N 32°18' W 090°55'2 2.1
2016-Dec-05 13:33N 32°17' W 090°57'4 4.4
2016-Dec-05 12:33N 32°12' W 090°59'5 4.8
2016-Dec-05 11:33N 32°08' W 091°01'5 4.9
2016-Dec-05 10:33N 32°08' W 091°06'5 4.4
2016-Dec-05 09:28N 32°04' W 091°03'  
2016-Dec-01 05:29N 31°59' W 091°11'6 6.8
2016-Dec-01 04:33N 32°02' W 091°04'6 6.2
2016-Dec-01 03:33N 32°07' W 091°07'5 4.5
2016-Dec-01 02:33N 32°07' W 091°01'8 8.0
2016-Dec-01 01:33N 32°15' W 090°59'6 6.5
2016-Dec-01 00:33N 32°20' W 090°54'6 5.6
2016-Nov-30 23:33N 32°22' W 091°00'6 6.2
2016-Nov-30 22:33N 32°27' W 091°05'7 6.9
2016-Nov-30 21:33N 32°34' W 091°06'  
Track history (hours):
 
Tides and Currents Weather Stations Pressure Air Temp Water Temp Dewpoint Dewpoint Depression Visibility Wind Speed Wind Dir Waves Ship Positions

Jacky L O'neal

Owner: American Commercial Lines LLC, Jeffersonville, IN. More information available from US FCC via Universal Licensing System and Coast Guard Vessel Documentation Center.

Last reported at 2016-Dec-05 22:27 UTC. Time now 2016-Dec-09 00:07 UTC.
Position N 32°40' W 091°07'.

Length 55 m; draft 2.9 m.

Type: Tow > 200 m length. MMSI: 367530760.

Date/timePositionNaut miles runAvg speedWind from/ knotsBaromVisibWave heightAir tempDewpointWater temp
2016-Dec-05 22:27N 32°40' W 091°07'4 4.0
2016-Dec-05 21:33N 32°37' W 091°09'2 2.4
2016-Dec-05 20:33N 32°35' W 091°08'2 2.3
2016-Dec-05 19:33N 32°34' W 091°06'5 5.1
2016-Dec-05 18:33N 32°29' W 091°07'4 4.3
2016-Dec-05 17:33N 32°26' W 091°02'4 4.0
2016-Dec-05 16:33N 32°23' W 091°00'4 3.8
2016-Dec-05 15:33N 32°21' W 090°56'3 3.1
2016-Dec-05 14:33N 32°18' W 090°55'2 2.1
2016-Dec-05 13:33N 32°17' W 090°57'4 4.4
2016-Dec-05 12:33N 32°12' W 090°59'5 4.8
2016-Dec-05 11:33N 32°08' W 091°01'5 4.9
2016-Dec-05 10:33N 32°08' W 091°06'5 4.4
2016-Dec-05 09:28N 32°04' W 091°03'  
2016-Dec-01 05:29N 31°59' W 091°11'6 6.8
2016-Dec-01 04:33N 32°02' W 091°04'6 6.2
2016-Dec-01 03:33N 32°07' W 091°07'5 4.5
2016-Dec-01 02:33N 32°07' W 091°01'8 8.0
2016-Dec-01 01:33N 32°15' W 090°59'6 6.5
2016-Dec-01 00:33N 32°20' W 090°54'6 5.6
2016-Nov-30 23:33N 32°22' W 091°00'6 6.2
2016-Nov-30 22:33N 32°27' W 091°05'7 6.9
2016-Nov-30 21:33N 32°34' W 091°06'  

Dump ship's entire track history